Nrp Polar — CTEJ — position and weather

sailwx.info

Track history (hours):
 
Tides and Currents Weather Stations Pressure Air Temp Water Temp Dewpoint Dewpoint Depression Visibility Wind Speed Wind Dir Waves Ship Positions

Nrp Polar

Last reported at 2017-Nov-18 18:21 UTC. Time now 2017-Nov-25 04:15 UTC.
Position N 38°40' W 009°09'.

Length 17 m; draft 3 m.

Type: Sailing vessel. MMSI: 263142000.

Date/timePositionNaut miles runAvg speedWind from/ knotsBaromVisibWave heightAir tempDewpointWater temp
2017-Nov-18 18:21N 38°40' W 009°09'0 0.8
2017-Nov-18 18:00N 38°40' W 009°09'1 2.6
2017-Nov-18 17:29N 38°41' W 009°10'2 4.5
2017-Nov-18 17:00N 38°41' W 009°13'3 5.3
2017-Nov-18 16:30N 38°41' W 009°16'3 6.0
2017-Nov-18 16:00N 38°40' W 009°20'3 5.9
2017-Nov-18 15:30N 38°41' W 009°23'3 5.3
2017-Nov-18 15:00N 38°41' W 009°27'1 2.8
2017-Nov-18 14:30N 38°42' W 009°28'3 6.7
2017-Nov-18 14:00N 38°41' W 009°24'3 6.8
2017-Nov-18 13:30N 38°37' W 009°24'3 7.0
2017-Nov-18 13:00N 38°34' W 009°23'3 6.9
2017-Nov-18 12:30N 38°30' W 009°22'1 2.1
2017-Nov-18 12:00N 38°30' W 009°22'1 2.5
2017-Nov-18 11:30N 38°31' W 009°22'3 6.4
2017-Nov-18 11:00N 38°34' W 009°21'4 6.9
2017-Nov-18 10:29N 38°37' W 009°21'3 6.7
2017-Nov-18 10:00N 38°40' W 009°18'3 6.1
2017-Nov-18 09:30N 38°41' W 009°15'4 7.1
2017-Nov-18 09:00N 38°41' W 009°10'2 3.4
2017-Nov-18 08:30N 38°41' W 009°08'1 0.6
2017-Nov-18 07:24N 38°40' W 009°09'0 0.0
2017-Nov-18 06:58N 38°40' W 009°09'0 0.0
2017-Nov-16 12:02N 38°40' W 009°09'0 0.0
2017-Nov-16 12:00N 38°40' W 009°09'0 0.0
2017-Nov-16 11:27N 38°40' W 009°09'  
Track history (hours):
 
Tides and Currents Weather Stations Pressure Air Temp Water Temp Dewpoint Dewpoint Depression Visibility Wind Speed Wind Dir Waves Ship Positions

Nrp Polar

Last reported at 2017-Nov-18 18:21 UTC. Time now 2017-Nov-25 04:15 UTC.
Position N 38°40' W 009°09'.

Length 17 m; draft 3 m.

Type: Sailing vessel. MMSI: 263142000.

Date/timePositionNaut miles runAvg speedWind from/ knotsBaromVisibWave heightAir tempDewpointWater temp
2017-Nov-18 18:21N 38°40' W 009°09'0 0.8
2017-Nov-18 18:00N 38°40' W 009°09'1 2.6
2017-Nov-18 17:29N 38°41' W 009°10'2 4.5
2017-Nov-18 17:00N 38°41' W 009°13'3 5.3
2017-Nov-18 16:30N 38°41' W 009°16'3 6.0
2017-Nov-18 16:00N 38°40' W 009°20'3 5.9
2017-Nov-18 15:30N 38°41' W 009°23'3 5.3
2017-Nov-18 15:00N 38°41' W 009°27'1 2.8
2017-Nov-18 14:30N 38°42' W 009°28'3 6.7
2017-Nov-18 14:00N 38°41' W 009°24'3 6.8
2017-Nov-18 13:30N 38°37' W 009°24'3 7.0
2017-Nov-18 13:00N 38°34' W 009°23'3 6.9
2017-Nov-18 12:30N 38°30' W 009°22'1 2.1
2017-Nov-18 12:00N 38°30' W 009°22'1 2.5
2017-Nov-18 11:30N 38°31' W 009°22'3 6.4
2017-Nov-18 11:00N 38°34' W 009°21'4 6.9
2017-Nov-18 10:29N 38°37' W 009°21'3 6.7
2017-Nov-18 10:00N 38°40' W 009°18'3 6.1
2017-Nov-18 09:30N 38°41' W 009°15'4 7.1
2017-Nov-18 09:00N 38°41' W 009°10'2 3.4
2017-Nov-18 08:30N 38°41' W 009°08'1 0.6
2017-Nov-18 07:24N 38°40' W 009°09'0 0.0
2017-Nov-18 06:58N 38°40' W 009°09'0 0.0
2017-Nov-16 12:02N 38°40' W 009°09'0 0.0
2017-Nov-16 12:00N 38°40' W 009°09'0 0.0
2017-Nov-16 11:27N 38°40' W 009°09'  

Dump ship's entire track history